Time;durP1;ratioP1;P1;durP2;ratioP2;P2;SDS_P1;SDS_P2;PMS_P1;PMS_P2;Temp;Humidity;BMP_temperature;BMP_pressure;BME280_temperature;BME280_humidity;BME280_pressure;Samples;Min_cycle;Max_cycle;Signal;HPM_P1;HPM_P2
2023/06/24 00:01:28;;;;;;;6.05;2.38;;;;;;;17.44;100.00;101147.47;5038209;28;20036;-85
2023/06/24 00:03:54;;;;;;;3.45;1.98;;;;;;;17.40;100.00;101132.63;5054240;28;20029;-85
2023/06/24 00:06:22;;;;;;;7.35;2.25;;;;;;;17.44;100.00;101139.34;5037862;28;20033;-84
2023/06/24 00:08:50;;;;;;;4.82;2.00;;;;;;;17.30;100.00;101113.19;5021688;28;20130;-85
2023/06/24 00:11:16;;;;;;;3.42;1.67;;;;;;;17.47;100.00;101138.91;5037853;28;20094;-84
2023/06/24 00:13:42;;;;;;;3.55;2.15;;;;;;;17.52;100.00;101139.09;5054276;28;20464;-87
2023/06/24 00:16:08;;;;;;;5.22;2.10;;;;;;;17.42;100.00;101129.72;5054178;28;20025;-84
2023/06/24 00:18:35;;;;;;;5.72;2.22;;;;;;;17.47;100.00;101129.91;5037538;28;20044;-84
2023/06/24 00:21:02;;;;;;;4.50;2.50;;;;;;;17.36;100.00;101123.25;5037578;28;20037;-83
2023/06/24 00:23:30;;;;;;;5.20;1.90;;;;;;;17.51;100.00;101142.84;5037267;28;20074;-83
2023/06/24 00:25:56;;;;;;;6.95;2.40;;;;;;;17.45;100.00;101149.16;5021275;28;20037;-83
2023/06/24 00:28:23;;;;;;;3.53;1.80;;;;;;;17.39;100.00;101139.13;5037578;28;20033;-84
2023/06/24 00:30:49;;;;;;;5.82;2.22;;;;;;;17.26;100.00;101144.59;5053712;28;20029;-84
2023/06/24 00:33:15;;;;;;;3.65;2.22;;;;;;;17.04;100.00;101139.38;5037308;28;20040;-83
2023/06/24 00:35:41;;;;;;;6.38;2.40;;;;;;;16.90;100.00;101134.97;5037459;28;20029;-84
2023/06/24 00:38:07;;;;;;;6.53;2.30;;;;;;;16.77;100.00;101127.63;5037484;28;20033;-84
2023/06/24 00:40:33;;;;;;;4.18;2.22;;;;;;;16.72;100.00;101130.09;5037392;28;20033;-83
2023/06/24 00:43:01;;;;;;;5.32;2.30;;;;;;;16.70;100.00;101138.47;5053587;28;20035;-83
2023/06/24 00:45:27;;;;;;;9.40;2.60;;;;;;;16.50;100.00;101105.03;5037392;28;20052;-83
2023/06/24 00:47:56;;;;;;;8.82;2.30;;;;;;;16.54;100.00;101109.00;5053342;28;20037;-84
2023/06/24 00:50:22;;;;;;;4.57;1.55;;;;;;;16.59;100.00;101117.38;5037466;28;20037;-84
2023/06/24 00:52:49;;;;;;;5.93;2.80;;;;;;;16.63;100.00;101134.06;5053253;28;20039;-84
2023/06/24 00:55:15;;;;;;;9.57;2.45;;;;;;;16.50;100.00;101105.03;5054547;28;20047;-83
2023/06/24 00:57:45;;;;;;;8.70;2.83;;;;;;;16.61;100.00;101125.28;5036789;28;20033;-83
2023/06/24 01:00:14;;;;;;;9.48;3.35;;;;;;;16.60;100.00;101120.91;5053396;28;20043;-83
2023/06/24 01:02:42;;;;;;;5.45;2.60;;;;;;;16.59;100.00;101121.94;5052794;28;20028;-84
2023/06/24 01:05:11;;;;;;;3.78;2.50;;;;;;;16.68;100.00;101126.16;5052778;28;20064;-85
2023/06/24 01:07:40;;;;;;;3.97;2.10;;;;;;;16.72;100.00;101127.38;5052716;28;20095;-84
2023/06/24 01:10:08;;;;;;;6.63;2.28;;;;;;;16.77;100.00;101129.50;5019827;28;20437;-84
2023/06/24 01:12:40;;;;;;;9.55;2.25;;;;;;;16.73;100.00;101114.69;5053089;28;20037;-85
2023/06/24 01:15:10;;;;;;;6.15;3.35;;;;;;;16.58;100.00;101102.13;5004160;28;20029;-83
2023/06/24 01:17:45;;;;;;;8.00;2.40;;;;;;;16.74;100.00;101136.16;5052291;28;20524;-84
2023/06/24 01:20:27;;;;;;;7.05;2.50;;;;;;;16.74;100.00;101124.47;5036435;28;20523;-85
2023/06/24 01:23:16;;;;;;;5.43;2.05;;;;;;;16.69;100.00;101127.81;5036618;28;20029;-84
2023/06/24 01:25:50;;;;;;;3.72;2.00;;;;;;;16.73;100.00;101139.94;5036658;28;20442;-84
2023/06/24 01:28:43;;;;;;;8.65;2.55;;;;;;;16.78;100.00;101133.94;5052243;28;20033;-85
2023/06/24 01:31:51;;;;;;;6.35;2.60;;;;;;;16.79;100.00;101132.88;5053848;28;20102;-84
2023/06/24 01:34:40;;;;;;;10.18;2.65;;;;;;;16.81;100.00;101130.78;5035534;28;20127;-87
2023/06/24 01:37:06;;;;;;;5.72;2.55;;;;;;;16.72;100.00;101111.09;5019629;28;20037;-86
2023/06/24 01:39:34;;;;;;;6.85;2.50;;;;;;;16.70;100.00;101102.34;5053703;28;20079;-84
2023/06/24 01:42:10;;;;;;;3.17;1.55;;;;;;;16.76;100.00;101117.81;5019399;28;20033;-84
2023/06/24 01:44:37;;;;;;;4.32;2.15;;;;;;;16.78;100.00;101133.94;5052387;28;20035;-84
2023/06/24 01:47:05;;;;;;;4.10;2.13;;;;;;;16.74;100.00;101132.63;5036116;28;20041;-86
2023/06/24 01:49:33;;;;;;;5.03;1.98;;;;;;;16.71;100.00;101125.72;5052460;28;20162;-85
2023/06/24 01:52:00;;;;;;;5.38;2.03;;;;;;;16.54;100.00;101109.00;5019678;28;20025;-83
2023/06/24 01:54:28;;;;;;;4.90;2.08;;;;;;;16.69;100.00;101134.06;5051963;28;20029;-83
2023/06/24 01:56:55;;;;;;;9.10;2.55;;;;;;;16.68;100.00;101126.97;5035775;28;20020;-83
2023/06/24 01:59:22;;;;;;;5.15;2.25;;;;;;;16.65;100.00;101121.13;5035812;28;20029;-83
2023/06/24 02:01:47;;;;;;;4.85;2.30;;;;;;;16.66;100.00;101122.78;5052207;28;20490;-85
2023/06/24 02:04:14;;;;;;;5.45;2.38;;;;;;;16.52;100.00;101100.22;5052259;28;20029;-83
2023/06/24 02:06:40;;;;;;;5.57;2.13;;;;;;;16.77;100.00;101134.91;5035473;28;20502;-84
2023/06/24 02:09:07;;;;;;;4.60;2.20;;;;;;;16.68;100.00;101120.72;5035460;28;20033;-83
2023/06/24 02:11:35;;;;;;;7.88;2.67;;;;;;;16.75;100.00;101127.00;5052185;28;20033;-84
2023/06/24 02:14:02;;;;;;;4.20;1.85;;;;;;;16.63;100.00;101117.78;5051768;28;20380;-85
2023/06/24 02:16:29;;;;;;;5.13;2.20;;;;;;;16.66;100.00;101129.06;5052232;28;20040;-84
2023/06/24 02:18:55;;;;;;;6.15;2.13;;;;;;;16.63;100.00;101112.34;5035629;28;20041;-84
2023/06/24 02:21:22;;;;;;;5.10;2.17;;;;;;;16.64;100.00;101100.44;5035167;28;20032;-85
2023/06/24 02:23:48;;;;;;;5.78;2.53;;;;;;;16.73;100.00;101109.25;5035420;28;20383;-83
2023/06/24 02:26:14;;;;;;;4.93;2.05;;;;;;;16.75;100.00;101112.56;5019309;28;20033;-83
2023/06/24 02:28:40;;;;;;;8.60;1.88;;;;;;;16.82;100.00;101119.72;5035786;28;20490;-83
2023/06/24 02:31:09;;;;;;;6.15;2.10;;;;;;;16.84;100.00;101123.06;5019219;28;20476;-84
2023/06/24 02:33:34;;;;;;;4.50;1.95;;;;;;;16.74;100.00;101105.47;5035580;28;20029;-84
2023/06/24 02:36:00;;;;;;;7.32;3.05;;;;;;;16.81;100.00;101104.47;5052135;28;20031;-86
2023/06/24 02:38:25;;;;;;;8.00;2.00;;;;;;;16.94;100.00;101121.81;5018997;28;20037;-84
2023/06/24 02:40:52;;;;;;;3.55;1.70;;;;;;;16.94;100.00;101121.81;5022366;28;20426;-83
2023/06/24 02:43:17;;;;;;;3.72;1.98;;;;;;;16.96;100.00;101123.25;5023227;28;20028;-85
2023/06/24 02:45:46;;;;;;;6.40;2.20;;;;;;;16.98;100.00;101123.06;5039494;28;20450;-83
2023/06/24 02:48:13;;;;;;;4.72;2.08;;;;;;;17.01;100.00;101123.47;5039800;28;20063;-83
2023/06/24 02:50:40;;;;;;;5.03;1.98;;;;;;;16.98;100.00;101117.63;5039376;28;20124;-84
2023/06/24 02:53:07;;;;;;;5.43;2.58;;;;;;;16.96;100.00;101108.84;5039161;28;20115;-83
2023/06/24 02:55:33;;;;;;;5.65;2.25;;;;;;;17.04;100.00;101120.34;5039109;28;20083;-84
2023/06/24 02:57:59;;;;;;;6.25;2.03;;;;;;;17.12;100.00;101124.72;5038767;28;20399;-84
2023/06/24 03:00:25;;;;;;;5.00;2.30;;;;;;;17.09;100.00;101112.41;5055665;28;20040;-85
2023/06/24 03:02:51;;;;;;;5.28;2.10;;;;;;;17.14;100.00;101114.47;5055000;28;20361;-83
2023/06/24 03:05:18;;;;;;;4.20;2.17;;;;;;;17.20;100.00;101112.78;5022152;28;20032;-83
2023/06/24 03:07:45;;;;;;;7.25;2.35;;;;;;;17.10;100.00;101086.06;5055077;28;20491;-83
2023/06/24 03:10:10;;;;;;;9.15;2.22;;;;;;;17.25;100.00;101108.41;5038687;28;20029;-83
2023/06/24 03:12:36;;;;;;;4.97;2.08;;;;;;;17.27;100.00;101110.91;5055294;28;20029;-85
2023/06/24 03:15:02;;;;;;;5.35;2.40;;;;;;;17.29;100.00;101117.81;5038466;28;20051;-82
2023/06/24 03:17:28;;;;;;;5.15;2.45;;;;;;;17.32;100.00;101122.81;5055039;28;20472;-84
2023/06/24 03:19:53;;;;;;;6.20;1.90;;;;;;;17.31;100.00;101117.59;5038328;28;20029;-84
2023/06/24 03:22:20;;;;;;;3.95;1.92;;;;;;;17.35;100.00;101122.38;5056323;28;20032;-83
2023/06/24 03:24:46;;;;;;;2.28;1.42;;;;;;;17.34;100.00;101119.91;5022107;28;20029;-85
2023/06/24 03:27:12;;;;;;;6.28;2.42;;;;;;;17.17;100.00;101099.63;5055831;28;20024;-86
2023/06/24 03:29:38;;;;;;;3.67;1.67;;;;;;;17.27;100.00;101124.50;5055977;28;20116;-84
2023/06/24 03:32:04;;;;;;;5.65;1.80;;;;;;;17.23;100.00;101123.25;5038499;28;20037;-85
2023/06/24 03:34:29;;;;;;;3.58;1.60;;;;;;;17.23;100.00;101123.25;5055953;28;20487;-85
2023/06/24 03:36:55;;;;;;;4.07;2.22;;;;;;;17.14;100.00;101122.63;5038523;28;20486;-85
2023/06/24 03:39:21;;;;;;;4.18;1.50;;;;;;;17.08;100.00;101116.16;5038144;28;20033;-86
2023/06/24 03:41:46;;;;;;;7.15;1.67;;;;;;;17.08;100.00;101121.59;5055663;28;20040;-84
2023/06/24 03:44:12;;;;;;;4.32;1.95;;;;;;;17.10;100.00;101135.81;5038177;28;20532;-86
2023/06/24 03:46:38;;;;;;;7.05;1.80;;;;;;;17.03;100.00;101124.09;5054567;28;20039;-85
2023/06/24 03:49:04;;;;;;;6.47;2.00;;;;;;;17.11;100.00;101133.91;5038458;28;20045;-85
2023/06/24 03:51:30;;;;;;;7.70;2.25;;;;;;;17.16;100.00;101142.28;5054219;28;20045;-85
2023/06/24 03:53:56;;;;;;;7.03;2.15;;;;;;;17.22;100.00;101143.31;5020739;28;20139;-84
2023/06/24 03:56:22;;;;;;;9.75;2.50;;;;;;;17.24;100.00;101146.66;5054447;28;20501;-86
2023/06/24 03:58:48;;;;;;;4.32;1.92;;;;;;;17.17;100.00;101137.69;5053878;28;20057;-84
2023/06/24 04:01:13;;;;;;;7.45;2.15;;;;;;;17.01;100.00;101126.19;5054040;28;20455;-84
2023/06/24 04:03:39;;;;;;;4.20;1.63;;;;;;;17.05;100.00;101137.47;5021516;28;20040;-85
2023/06/24 04:06:05;;;;;;;5.53;1.98;;;;;;;17.02;100.00;101138.75;5053933;28;20029;-84
2023/06/24 04:08:30;;;;;;;5.72;2.25;;;;;;;17.05;100.00;101143.75;5037196;28;20490;-87
2023/06/24 04:11:06;;;;;;;4.45;1.90;;;;;;;17.07;100.00;101144.38;5037903;28;20100;-84
2023/06/24 04:13:35;;;;;;;4.88;1.70;;;;;;;17.13;100.00;101146.25;5038748;28;20098;-84
2023/06/24 04:16:01;;;;;;;4.95;2.25;;;;;;;17.16;100.00;101150.44;5021255;28;20040;-85
2023/06/24 04:18:27;;;;;;;5.00;1.88;;;;;;;17.09;100.00;101142.28;5037414;28;20550;-84
2023/06/24 04:20:53;;;;;;;3.72;1.52;;;;;;;17.05;100.00;101132.06;5053592;28;20029;-85
2023/06/24 04:23:19;;;;;;;3.40;1.75;;;;;;;17.18;100.00;101142.09;5054145;28;20481;-84
2023/06/24 04:25:44;;;;;;;4.72;1.67;;;;;;;17.07;100.00;101129.97;5054081;28;20033;-85
2023/06/24 04:28:10;;;;;;;5.40;1.35;;;;;;;16.96;100.00;101133.28;5037600;28;20037;-83
2023/06/24 04:30:38;;;;;;;4.80;2.10;;;;;;;16.97;100.00;101165.69;5053975;28;20495;-84
2023/06/24 04:33:10;;;;;;;2.88;1.45;;;;;;;16.81;100.00;101161.50;5021186;28;20040;-86
2023/06/24 04:35:35;;;;;;;3.38;1.10;;;;;;;16.79;100.00;101174.44;5053406;28;20037;-84
2023/06/24 04:38:02;;;;;;;3.22;1.23;;;;;;;16.75;100.00;101175.03;5054822;28;20079;-86
2023/06/24 04:40:27;;;;;;;4.18;1.92;;;;;;;16.65;100.00;101175.44;5037162;28;20021;-86
2023/06/24 04:42:53;;;;;;;5.25;1.77;;;;;;;16.67;100.00;101186.91;5037034;28;20029;-83
2023/06/24 04:45:19;;;;;;;0.40;0.30;;;;;;;16.69;100.00;101192.97;5020756;28;20037;-83
2023/06/24 04:47:44;;;;;;;0.30;0.30;;;;;;;16.63;100.00;101185.66;5053565;28;20029;-82
2023/06/24 04:50:10;;;;;;;1.20;0.52;;;;;;;16.63;100.00;101189.22;5037067;28;20033;-81
2023/06/24 04:52:36;;;;;;;0.40;0.40;;;;;;;16.57;100.00;101184.59;5054656;28;20043;-80
2023/06/24 04:55:02;;;;;;;0.25;0.25;;;;;;;16.58;100.00;101199.84;5053565;28;20033;-81
2023/06/24 04:57:30;;;;;;;0.40;0.40;;;;;;;16.60;100.00;101195.06;5054114;28;20460;-83
2023/06/24 04:59:57;;;;;;;1.98;0.88;;;;;;;16.56;100.00;101193.78;5053357;28;20035;-82
2023/06/24 05:02:23;;;;;;;0.40;0.40;;;;;;;16.61;100.00;101206.75;5052249;28;20052;-82
2023/06/24 05:04:49;;;;;;;0.30;0.30;;;;;;;16.64;100.00;101199.00;5036427;28;20063;-81
2023/06/24 05:07:15;;;;;;;0.22;0.22;;;;;;;16.65;100.00;101208.03;5053043;28;20044;-84
2023/06/24 05:09:40;;;;;;;0.25;0.25;;;;;;;16.65;100.00;101198.00;5052795;28;20469;-82
2023/06/24 05:12:07;;;;;;;0.30;0.30;;;;;;;16.66;100.00;101202.38;5053056;28;20037;-82
2023/06/24 05:14:36;;;;;;;0.30;0.30;;;;;;;16.77;100.00;101206.38;5036231;28;20029;-81
2023/06/24 05:17:05;;;;;;;0.25;0.25;;;;;;;16.65;100.00;101181.69;5052777;28;20033;-82
2023/06/24 05:19:31;;;;;;;0.22;0.22;;;;;;;16.72;100.00;101203.41;5036357;28;20430;-81
2023/06/24 05:21:57;;;;;;;0.30;0.30;;;;;;;16.75;100.00;101202.19;5019878;28;20025;-82
2023/06/24 05:24:23;;;;;;;0.20;0.20;;;;;;;16.87;100.00;101204.13;5052644;28;20083;-81
2023/06/24 05:26:51;;;;;;;0.32;0.32;;;;;;;16.91;100.00;101199.97;5019807;28;20033;-84
2023/06/24 05:29:17;;;;;;;0.52;0.32;;;;;;;16.92;100.00;101188.03;5036056;28;20025;-82
2023/06/24 05:31:43;;;;;;;0.30;0.30;;;;;;;17.05;100.00;101214.38;5036382;28;20111;-82
2023/06/24 05:34:09;;;;;;;0.20;0.20;;;;;;;17.07;100.00;101209.59;5052630;28;20468;-81
2023/06/24 05:36:34;;;;;;;0.28;0.28;;;;;;;17.09;100.00;101202.06;5052275;28;20024;-81
2023/06/24 05:39:00;;;;;;;0.20;0.20;;;;;;;17.20;100.00;101205.19;5052811;28;20032;-81
2023/06/24 05:41:26;;;;;;;0.20;0.20;;;;;;;17.16;100.00;101193.91;5035700;28;20048;-82
2023/06/24 05:44:03;;;;;;;0.63;0.63;;;;;;;17.20;100.00;101189.75;5035792;28;20456;-81
2023/06/24 05:46:28;;;;;;;0.22;0.22;;;;;;;17.38;100.00;101218.97;5052301;28;20068;-83
2023/06/24 05:48:54;;;;;;;0.47;0.30;;;;;;;17.39;100.00;101200.81;5035354;28;20112;-82
2023/06/24 05:51:19;;;;;;;0.20;0.20;;;;;;;17.44;100.00;101210.00;5052342;28;20430;-81
2023/06/24 05:53:45;;;;;;;0.20;0.20;;;;;;;17.47;100.00;101216.91;5052185;28;20041;-82
2023/06/24 05:56:10;;;;;;;0.30;0.30;;;;;;;17.22;100.00;101187.63;5053213;28;20033;-82
2023/06/24 05:58:37;;;;;;;0.20;0.20;;;;;;;17.45;100.00;101208.94;5052920;28;20485;-81
2023/06/24 06:01:03;;;;;;;0.22;0.22;;;;;;;17.44;100.00;101215.44;5053307;28;20111;-81
2023/06/24 06:03:29;;;;;;;0.30;0.30;;;;;;;17.53;100.00;101218.78;5052427;28;20024;-81
2023/06/24 06:05:54;;;;;;;0.20;0.20;;;;;;;17.53;100.00;101225.03;5051911;28;20036;-82
2023/06/24 06:08:20;;;;;;;0.20;0.20;;;;;;;17.58;100.00;101224.41;5052425;28;20040;-81
2023/06/24 06:10:46;;;;;;;0.20;0.20;;;;;;;17.59;100.00;101229.63;5052271;28;20414;-81
2023/06/24 06:13:12;;;;;;;0.63;0.30;;;;;;;17.59;100.00;101229.63;5054361;28;20044;-81
2023/06/24 06:15:37;;;;;;;0.25;0.25;;;;;;;17.58;100.00;101238.03;5058914;28;20037;-83
2023/06/24 06:18:03;;;;;;;0.28;0.28;;;;;;;17.55;100.00;101222.97;5059876;28;20081;-81
2023/06/24 06:20:29;;;;;;;0.22;0.22;;;;;;;17.48;100.00;101210.41;5041997;28;20033;-81
2023/06/24 06:22:54;;;;;;;0.30;0.30;;;;;;;17.57;100.00;101229.03;5059903;28;20033;-81
2023/06/24 06:25:20;;;;;;;0.20;0.20;;;;;;;17.55;100.00;101233.84;5058841;28;20422;-83
2023/06/24 06:27:45;;;;;;;0.20;0.20;;;;;;;17.60;100.00;101244.09;5058853;28;20025;-82
2023/06/24 06:30:12;;;;;;;0.20;0.20;;;;;;;17.60;100.00;101249.53;5042416;28;20037;-81
2023/06/24 06:32:37;;;;;;;0.28;0.28;;;;;;;17.57;100.00;101247.19;5058697;28;20028;-83
2023/06/24 06:35:03;;;;;;;0.20;0.20;;;;;;;17.67;100.00;101244.06;5042066;28;20037;-81
2023/06/24 06:37:29;;;;;;;0.30;0.30;;;;;;;17.72;100.00;101238.84;5025748;28;20029;-82
2023/06/24 06:39:57;;;;;;;0.30;0.30;;;;;;;17.69;100.00;101229.22;5058697;28;20040;-81
2023/06/24 06:42:23;;;;;;;0.20;0.20;;;;;;;17.77;100.00;101233.59;5059805;28;20060;-81
2023/06/24 06:44:49;;;;;;;0.20;0.20;;;;;;;17.90;100.00;101232.78;5042029;28;20056;-84
2023/06/24 06:47:14;;;;;;;0.30;0.30;;;;;;;18.01;100.00;101230.22;5059562;28;20491;-81
2023/06/24 06:49:40;;;;;;;0.20;0.20;;;;;;;18.09;100.00;101244.66;5058750;28;20028;-81
2023/06/24 06:52:06;;;;;;;0.20;0.20;;;;;;;18.13;100.00;101244.03;5058644;28;20116;-82
2023/06/24 06:54:32;;;;;;;0.28;0.28;;;;;;;18.21;100.00;101246.50;5042186;28;20053;-83
2023/06/24 06:57:04;;;;;;;0.20;0.20;;;;;;;18.28;100.00;101242.91;5041700;28;20056;-83
2023/06/24 06:59:30;;;;;;;0.30;0.30;;;;;;;18.44;100.00;101251.44;5041679;28;20035;-81
2023/06/24 07:01:56;;;;;;;0.30;0.30;;;;;;;18.50;100.00;101238.84;5058246;28;20033;-83
2023/06/24 07:04:22;;;;;;;0.38;0.30;;;;;;;18.55;100.00;101255.38;5058024;28;20499;-82
2023/06/24 07:06:48;;;;;;;0.20;0.20;;;;;;;18.58;100.00;101254.94;5058319;28;20028;-82
2023/06/24 07:09:14;;;;;;;0.57;0.45;;;;;;;18.63;100.00;101249.69;5058255;28;20033;-82
2023/06/24 07:11:41;;;;;;;0.77;0.50;;;;;;;18.96;100.00;101254.13;5057573;28;20032;-83
2023/06/24 07:14:07;;;;;;;0.45;0.40;;;;;;;19.15;100.00;101259.66;5008792;28;20047;-83
2023/06/24 07:16:32;;;;;;;0.25;0.25;;;;;;;19.22;100.00;101255.84;5057881;28;20100;-81
2023/06/24 07:18:58;;;;;;;0.20;0.20;;;;;;;19.22;100.00;101250.38;5041617;28;20033;-82
2023/06/24 07:21:24;;;;;;;0.30;0.30;;;;;;;19.10;100.00;101219.44;5041559;28;20460;-81
2023/06/24 07:23:49;;;;;;;0.30;0.30;;;;;;;19.35;100.00;101233.09;5041223;28;20110;-81
2023/06/24 07:26:15;;;;;;;0.20;0.20;;;;;;;19.70;100.00;101271.63;5054297;28;20032;-82
2023/06/24 07:28:41;;;;;;;0.90;0.70;;;;;;;19.76;100.00;101261.72;5054627;28;20024;-82
2023/06/24 07:31:06;;;;;;;0.40;0.40;;;;;;;19.87;100.00;101261.00;5038192;28;20423;-83
2023/06/24 07:33:32;;;;;;;2.22;0.80;;;;;;;20.32;100.00;101262.59;5054835;28;20040;-82
2023/06/24 07:35:58;;;;;;;2.17;0.90;;;;;;;20.81;100.00;101250.63;5037924;28;20055;-83
2023/06/24 07:38:24;;;;;;;0.55;0.55;;;;;;;21.24;100.00;101268.72;5038202;28;20035;-83
2023/06/24 07:40:49;;;;;;;0.90;0.82;;;;;;;21.39;100.00;101253.81;5054558;28;20028;-83
2023/06/24 07:43:15;;;;;;;1.35;1.02;;;;;;;22.71;100.00;101250.44;5055224;28;20037;-84
2023/06/24 07:45:41;;;;;;;1.55;0.82;;;;;;;23.35;100.00;101247.50;5054492;28;20065;-84
2023/06/24 07:48:07;;;;;;;1.60;1.05;;;;;;;22.85;100.00;101240.00;5054523;28;20380;-83
2023/06/24 07:50:36;;;;;;;5.18;1.75;;;;;;;22.77;100.00;101257.69;5054055;28;20033;-83
2023/06/24 07:53:02;;;;;;;5.55;1.33;;;;;;;22.96;100.00;101254.72;5054643;28;20047;-84
2023/06/24 07:55:28;;;;;;;3.05;1.58;;;;;;;22.38;100.00;101253.88;5054106;28;20034;-82
2023/06/24 07:57:54;;;;;;;1.25;0.85;;;;;;;22.07;100.00;101247.72;5037397;28;20060;-82
2023/06/24 08:00:19;;;;;;;5.05;2.00;;;;;;;21.91;100.00;101246.56;5037516;28;20072;-82
2023/06/24 08:02:45;;;;;;;5.70;2.05;;;;;;;22.03;100.00;101246.53;5053960;28;20081;-83
2023/06/24 08:05:11;;;;;;;4.90;1.65;;;;;;;22.34;100.00;101226.13;5053462;28;20392;-84
2023/06/24 08:07:37;;;;;;;10.15;2.22;;;;;;;22.77;100.00;101241.22;5037056;28;20112;-83
2023/06/24 08:10:04;;;;;;;4.78;1.83;;;;;;;22.52;100.00;101243.47;5054086;28;20040;-83
2023/06/24 08:12:30;;;;;;;7.90;2.55;;;;;;;22.19;100.00;101253.22;5037456;28;20033;-82
2023/06/24 08:14:55;;;;;;;3.15;1.77;;;;;;;22.09;100.00;101251.03;5037396;28;20048;-84
2023/06/24 08:17:21;;;;;;;3.63;1.65;;;;;;;22.23;100.00;101243.44;5055294;28;20040;-81
2023/06/24 08:19:46;;;;;;;4.78;2.20;;;;;;;22.07;100.00;101235.91;5043947;28;20028;-82
2023/06/24 08:22:12;;;;;;;3.35;1.75;;;;;;;23.07;100.00;101239.31;5060037;28;20032;-81
2023/06/24 08:24:39;;;;;;;6.72;2.65;;;;;;;22.87;100.00;101217.84;5053850;28;20029;-82
2023/06/24 08:27:04;;;;;;;3.10;2.00;;;;;;;23.39;100.00;101236.84;5054030;28;20360;-83
2023/06/24 08:29:30;;;;;;;5.28;1.73;;;;;;;23.04;100.00;101237.91;5037372;28;20036;-81
2023/06/24 08:31:56;;;;;;;4.97;2.47;;;;;;;22.28;100.00;101240.81;5053750;28;20090;-82
2023/06/24 08:34:21;;;;;;;4.93;2.42;;;;;;;21.79;100.00;101228.47;5054795;28;20039;-82
2023/06/24 08:36:47;;;;;;;7.05;2.22;;;;;;;23.20;100.00;101237.09;5053599;28;20498;-82
2023/06/24 08:39:12;;;;;;;2.42;1.42;;;;;;;23.87;100.00;101258.22;5036742;28;20036;-83
2023/06/24 08:41:38;;;;;;;4.97;2.20;;;;;;;24.22;100.00;101250.72;5053579;28;20116;-82
2023/06/24 08:44:04;;;;;;;4.13;2.05;;;;;;;25.30;98.01;101233.47;5036708;28;20064;-81
2023/06/24 08:46:30;;;;;;;6.85;2.20;;;;;;;24.12;100.00;101248.66;5053192;28;20051;-82
2023/06/24 08:49:03;;;;;;;5.00;2.03;;;;;;;24.13;100.00;101236.59;5053578;28;20029;-82
2023/06/24 08:51:31;;;;;;;4.63;2.13;;;;;;;23.81;100.00;101211.72;5037016;28;20395;-82
2023/06/24 08:53:57;;;;;;;5.95;2.65;;;;;;;23.75;100.00;101249.25;5053324;28;20075;-84
2023/06/24 08:56:23;;;;;;;5.32;2.28;;;;;;;24.03;100.00;101247.47;5036427;28;20376;-82
2023/06/24 08:58:49;;;;;;;4.47;2.92;;;;;;;25.16;99.58;101249.59;5037219;28;20115;-82
2023/06/24 09:01:14;;;;;;;8.30;3.15;;;;;;;24.97;99.13;101241.69;5052700;28;20459;-85
2023/06/24 09:03:40;;;;;;;6.32;2.47;;;;;;;24.79;98.46;101239.31;5036740;28;20037;-85
2023/06/24 09:06:05;;;;;;;8.60;3.72;;;;;;;24.37;99.79;101237.16;5036615;28;20036;-84
2023/06/24 09:08:31;;;;;;;5.68;2.55;;;;;;;23.68;100.00;101224.69;5053190;28;20218;-84
2023/06/24 09:10:58;;;;;;;4.50;1.95;;;;;;;23.16;100.00;101222.22;5036858;28;20037;-84
2023/06/24 09:13:56;;;;;;;5.45;2.67;;;;;;;22.62;100.00;101238.19;5052464;28;20108;-84
2023/06/24 09:16:22;;;;;;;5.78;2.47;;;;;;;22.15;100.00;101238.31;5035804;28;20045;-85
2023/06/24 09:18:52;;;;;;;4.15;2.13;;;;;;;21.92;100.00;101242.75;5036258;28;20036;-84
2023/06/24 09:21:30;;;;;;;6.75;2.80;;;;;;;21.79;100.00;101245.72;5019579;28;20124;-84
2023/06/24 09:23:57;;;;;;;8.00;2.50;;;;;;;21.87;100.00;101234.41;5020452;28;20035;-84
2023/06/24 09:26:24;;;;;;;7.05;3.25;;;;;;;22.11;100.00;101232.47;5052929;28;20079;-84
2023/06/24 09:28:50;;;;;;;9.18;3.25;;;;;;;22.38;100.00;101232.78;5052696;28;20032;-85
2023/06/24 09:31:15;;;;;;;7.47;2.72;;;;;;;23.37;100.00;101239.84;5036045;28;20033;-84
2023/06/24 09:33:41;;;;;;;7.07;3.22;;;;;;;23.93;100.00;101223.41;5053848;28;20068;-85
2023/06/24 09:36:12;;;;;;;6.80;2.63;;;;;;;24.33;97.53;101244.28;5036356;28;20025;-85
2023/06/24 09:38:38;;;;;;;8.20;3.10;;;;;;;25.81;91.10;101242.94;5036297;28;20131;-84
2023/06/24 09:41:05;;;;;;;7.03;3.13;;;;;;;26.32;84.61;101234.13;5052693;28;20111;-85
2023/06/24 09:43:39;;;;;;;8.63;2.85;;;;;;;25.98;82.83;101230.94;5003139;28;20445;-87
2023/06/24 09:46:06;;;;;;;5.15;2.53;;;;;;;25.92;79.82;101221.00;5052370;28;20070;-86
2023/06/24 09:48:33;;;;;;;4.15;2.40;;;;;;;26.52;72.87;101209.44;5052003;28;20551;-85
2023/06/24 09:51:04;;;;;;;6.10;2.78;;;;;;;27.74;66.35;101210.59;5052465;28;20044;-87
2023/06/24 09:53:34;;;;;;;6.85;2.80;;;;;;;29.60;56.69;101220.28;5035935;28;20047;-83
2023/06/24 09:56:01;;;;;;;6.05;2.95;;;;;;;29.03;55.01;101203.34;5052326;28;20025;-84
2023/06/24 09:58:37;;;;;;;4.85;2.25;;;;;;;28.09;54.87;101213.53;5051772;28;20033;-89
2023/06/24 10:01:04;;;;;;;5.72;2.60;;;;;;;26.92;58.57;101209.78;5019781;28;20045;-86
2023/06/24 10:03:32;;;;;;;5.57;2.75;;;;;;;26.28;61.15;101206.28;5053554;28;20418;-84
2023/06/24 10:05:59;;;;;;;10.02;2.70;;;;;;;25.98;63.09;101222.69;5035924;28;20054;-91
2023/06/24 10:08:25;;;;;;;6.35;2.67;;;;;;;25.65;64.22;101210.91;5036069;28;20467;-85
2023/06/24 10:10:50;;;;;;;5.82;2.45;;;;;;;24.85;66.32;101208.03;5052405;28;20055;-83
2023/06/24 10:13:16;;;;;;;2.95;2.25;;;;;;;24.47;68.83;101198.00;5052353;28;20079;-90
2023/06/24 10:15:42;;;;;;;6.72;2.50;;;;;;;24.66;69.39;101213.06;5052253;28;20033;-89
2023/06/24 10:18:39;;;;;;;6.13;2.45;;;;;;;26.66;63.07;101218.00;5052233;28;20471;-84
2023/06/24 10:21:06;;;;;;;4.18;2.58;;;;;;;29.22;53.35;101220.09;5035557;28;20120;-83
2023/06/24 10:23:47;;;;;;;5.88;1.98;;;;;;;29.62;48.76;101201.44;5019756;28;20514;-88
2023/06/24 10:26:28;;;;;;;5.07;2.28;;;;;;;28.50;51.11;101219.75;5052236;28;20472;-87
2023/06/24 10:29:05;;;;;;;6.00;2.40;;;;;;;29.31;51.39;101214.75;5019683;28;20029;-87
2023/06/24 10:31:40;;;;;;;6.05;2.78;;;;;;;31.84;45.58;101223.75;5053412;28;20064;-87
2023/06/24 10:34:24;;;;;;;5.78;2.70;;;;;;;31.39;45.51;101214.31;5053116;28;20033;-88
2023/06/24 10:37:03;;;;;;;4.00;2.03;;;;;;;32.09;44.70;101213.28;5052183;28;20028;-85
2023/06/24 10:39:48;;;;;;;8.52;2.60;;;;;;;33.77;40.79;101210.38;5019311;28;20028;-87
2023/06/24 10:42:23;;;;;;;4.10;2.13;;;;;;;33.92;39.12;101212.72;5035467;28;20029;-87
2023/06/24 10:44:49;;;;;;;3.75;2.40;;;;;;;32.72;40.15;101204.09;5053272;28;20543;-84
2023/06/24 10:47:15;;;;;;;5.18;1.98;;;;;;;32.72;39.69;101203.28;5051936;28;20464;-87
2023/06/24 10:49:41;;;;;;;4.35;1.33;;;;;;;30.90;43.63;101208.16;5053202;28;20032;-87
2023/06/24 10:52:10;;;;;;;3.55;1.67;;;;;;;28.82;47.40;101201.84;5053229;28;20039;-88
2023/06/24 10:54:37;;;;;;;5.15;1.40;;;;;;;26.78;52.93;101203.13;5035694;28;20036;-88
2023/06/24 10:57:04;;;;;;;3.55;1.92;;;;;;;25.37;59.91;101217.59;5019085;28;20056;-86
2023/06/24 11:00:03;;;;;;;5.95;2.42;;;;;;;24.50;66.00;101201.06;5052137;28;20029;-91
2023/06/24 11:02:30;;;;;;;4.70;2.22;;;;;;;25.06;67.10;101211.81;5034099;28;20048;-89
2023/06/24 11:04:59;;;;;;;4.53;1.83;;;;;;;25.76;62.40;101198.84;5040037;28;20037;-86
2023/06/24 11:07:26;;;;;;;4.63;2.17;;;;;;;26.07;61.26;101193.53;5022867;28;20107;-87
2023/06/24 11:09:56;;;;;;;4.25;2.35;;;;;;;27.05;56.52;101176.13;5038842;28;20043;-87
2023/06/24 11:12:34;;;;;;;3.92;1.75;;;;;;;27.49;55.52;101197.63;5022819;28;20049;-85
2023/06/24 11:15:03;;;;;;;3.50;1.77;;;;;;;27.20;53.87;101191.88;5038951;28;20495;-86
2023/06/24 11:17:29;;;;;;;2.92;1.67;;;;;;;27.03;54.57;101188.53;5055915;28;20127;-86
2023/06/24 11:19:56;;;;;;;5.90;2.20;;;;;;;26.61;55.86;101173.88;5055452;28;20427;-85
2023/06/24 11:22:23;;;;;;;7.22;2.33;;;;;;;25.77;61.26;101161.09;5038820;28;20122;-90